Highspeed 5 — SYDM — position and weather

sailwx.info

Track history (hours):
 
Tides and Currents Weather Stations Pressure Air Temp Water Temp Dewpoint Dewpoint Depression Visibility Wind Speed Wind Dir Waves Ship Positions

Highspeed 5

Last reported at 2014-Sep-21 15:34 UTC. Time now 2014-Sep-21 16:04 UTC.
Position N 36°11' E 025°19'.

Length 85 m; draft 3 m.

Type: High speed craft. MMSI: 240348000.

Date/timePositionNaut miles runAvg speedWind from/ knotsBaromVisibWave heightAir tempDewpointWater temp
2014-Sep-21 15:34N 36°11' E 025°19'2019.9
2014-Sep-21 14:34N 36°31' E 025°18'3635.5
2014-Sep-21 13:33N 37°06' E 025°22'1010.2
2014-Sep-21 12:33N 37°12' E 025°11'1111.3
2014-Sep-21 11:34N 37°22' E 025°17'1212.5
2014-Sep-21 10:34N 37°09' E 025°18'2625.5
2014-Sep-21 09:34N 36°44' E 025°14'2322.7
2014-Sep-21 08:34N 36°23' E 025°25'3635.6
2014-Sep-21 07:33N 35°49' E 025°15'14 0.9
2014-Sep-20 15:34N 36°02' E 025°17'2221.7
2014-Sep-20 14:32N 36°25' E 025°20'2828.5
2014-Sep-20 13:34N 36°50' E 025°06'2121.3
2014-Sep-20 12:34N 37°11' E 025°11'1211.7
2014-Sep-20 11:34N 37°22' E 025°16'2525.1
2014-Sep-20 10:33N 37°00' E 025°00'2525.3
2014-Sep-20 09:33N 36°39' E 025°16'1616.2
2014-Sep-20 08:33N 36°23' E 025°22'27 1.7
2014-Sep-19 16:33N 35°56' E 025°17'2827.9
2014-Sep-19 15:33N 36°23' E 025°26'3232.4
2014-Sep-19 14:34N 36°55' E 025°17'1312.4
2014-Sep-19 13:32N 37°05' E 025°08'2424.8
2014-Sep-19 12:33N 37°28' E 025°19'2322.9
2014-Sep-19 11:33N 37°07' E 025°08'1111.4
2014-Sep-19 10:34N 37°06' E 025°22'3232.5
2014-Sep-19 09:34N 36°34' E 025°17'1717.0
2014-Sep-19 08:33N 36°17' E 025°19'12 0.7
2014-Sep-18 15:34N 36°06' E 025°17'1919.2
2014-Sep-18 14:33N 36°25' E 025°20'2928.8
2014-Sep-18 13:34N 36°51' E 025°05'2221.9
2014-Sep-18 12:34N 37°13' E 025°12'9 8.8
2014-Sep-18 11:34N 37°21' E 025°16'2423.1
2014-Sep-18 10:32N 37°01' E 025°00'2626.4
2014-Sep-18 09:34N 36°38' E 025°17'1616.3
2014-Sep-18 08:34N 36°23' E 025°23'38 2.3
2014-Sep-17 16:29N 35°46' E 025°14'4623.7
2014-Sep-17 14:34N 36°32' E 025°18'2221.5
2014-Sep-17 13:33N 36°51' E 025°06'2221.9
2014-Sep-17 12:34N 37°12' E 025°11'1010.4
2014-Sep-17 11:34N 37°22' E 025°17'2323.0
2014-Sep-17 10:33N 37°02' E 025°02'2625.6
2014-Sep-17 09:33N 36°39' E 025°16'55 3.2
2014-Sep-16 16:03N 35°44' E 025°13'2039.7
2014-Sep-16 15:33N 36°03' E 025°17'2120.5
2014-Sep-16 14:33N 36°23' E 025°23'2827.7
2014-Sep-16 13:33N 36°48' E 025°08'2120.5
2014-Sep-16 12:31N 37°10' E 025°10'1617.0
2014-Sep-16 11:34N 37°25' E 025°17'2625.7
2014-Sep-16 10:33N 37°02' E 025°02'2626.0
2014-Sep-16 09:33N 36°39' E 025°17'1716.9
2014-Sep-16 08:33N 36°23' E 025°23'3837.6
2014-Sep-16 07:33N 35°46' E 025°17'3 0.2
2014-Sep-15 16:06N 35°47' E 025°14'2239.2
2014-Sep-15 15:33N 36°08' E 025°19'2120.9
2014-Sep-15 14:34N 36°29' E 025°19'3837.6
2014-Sep-15 13:33N 37°06' E 025°22'1010.1
2014-Sep-15 12:33N 37°12' E 025°11'10 9.9
2014-Sep-15 11:34N 37°21' E 025°16'1212.3
2014-Sep-15 10:34N 37°09' E 025°19'2525.1
2014-Sep-15 09:33N 36°44' E 025°15'2322.8
2014-Sep-15 08:34N 36°23' E 025°25'56 3.5
2014-Sep-14 16:33N 35°29' E 025°10'4039.8
2014-Sep-14 15:33N 36°08' E 025°19'2020.3
2014-Sep-14 14:34N 36°28' E 025°18'3838.4
2014-Sep-14 13:34N 37°06' E 025°22'1110.5
2014-Sep-14 12:34N 37°11' E 025°10'1110.8
2014-Sep-14 11:34N 37°21' E 025°16'1211.8
2014-Sep-14 10:34N 37°09' E 025°18'2424.3
2014-Sep-14 09:33N 36°45' E 025°15'2423.7
2014-Sep-14 08:33N 36°23' E 025°25'3635.7
2014-Sep-14 07:33N 35°48' E 025°15'17 1.1
2014-Sep-13 16:27N 35°31' E 025°11'3539.3
2014-Sep-13 15:33N 36°06' E 025°18'1918.6
2014-Sep-13 14:33N 36°24' E 025°20'2626.7
2014-Sep-13 13:34N 36°49' E 025°08'2119.9
2014-Sep-13 12:31N 37°10' E 025°10'1617.0
2014-Sep-13 11:33N 37°25' E 025°17'2525.3
2014-Sep-13 10:33N 37°03' E 025°02'2626.0
2014-Sep-13 09:34N 36°39' E 025°16'1817.8
2014-Sep-13 08:33N 36°23' E 025°25'3636.1
2014-Sep-13 07:34N 35°48' E 025°14'1 0.1
2014-Sep-12 16:12N 35°47' E 025°14'2539.2
2014-Sep-12 15:33N 36°12' E 025°19'1818.2
2014-Sep-12 14:34N 36°30' E 025°18'3736.6
2014-Sep-12 13:34N 37°06' E 025°22'10 9.7
2014-Sep-12 12:33N 37°11' E 025°11'1212.2
2014-Sep-12 11:34N 37°22' E 025°17'1312.6
2014-Sep-12 10:34N 37°09' E 025°18'2524.8
2014-Sep-12 09:33N 36°45' E 025°15'2323.3
2014-Sep-12 08:34N 36°23' E 025°25'3636.0
2014-Sep-12 07:33N 35°48' E 025°14'  
Track history (hours):
 
Tides and Currents Weather Stations Pressure Air Temp Water Temp Dewpoint Dewpoint Depression Visibility Wind Speed Wind Dir Waves Ship Positions

Highspeed 5

Last reported at 2014-Sep-21 15:34 UTC. Time now 2014-Sep-21 16:04 UTC.
Position N 36°11' E 025°19'.

Length 85 m; draft 3 m.

Type: High speed craft. MMSI: 240348000.

Date/timePositionNaut miles runAvg speedWind from/ knotsBaromVisibWave heightAir tempDewpointWater temp
2014-Sep-21 15:34N 36°11' E 025°19'2019.9
2014-Sep-21 14:34N 36°31' E 025°18'3635.5
2014-Sep-21 13:33N 37°06' E 025°22'1010.2
2014-Sep-21 12:33N 37°12' E 025°11'1111.3
2014-Sep-21 11:34N 37°22' E 025°17'1212.5
2014-Sep-21 10:34N 37°09' E 025°18'2625.5
2014-Sep-21 09:34N 36°44' E 025°14'2322.7
2014-Sep-21 08:34N 36°23' E 025°25'3635.6
2014-Sep-21 07:33N 35°49' E 025°15'14 0.9
2014-Sep-20 15:34N 36°02' E 025°17'2221.7
2014-Sep-20 14:32N 36°25' E 025°20'2828.5
2014-Sep-20 13:34N 36°50' E 025°06'2121.3
2014-Sep-20 12:34N 37°11' E 025°11'1211.7
2014-Sep-20 11:34N 37°22' E 025°16'2525.1
2014-Sep-20 10:33N 37°00' E 025°00'2525.3
2014-Sep-20 09:33N 36°39' E 025°16'1616.2
2014-Sep-20 08:33N 36°23' E 025°22'27 1.7
2014-Sep-19 16:33N 35°56' E 025°17'2827.9
2014-Sep-19 15:33N 36°23' E 025°26'3232.4
2014-Sep-19 14:34N 36°55' E 025°17'1312.4
2014-Sep-19 13:32N 37°05' E 025°08'2424.8
2014-Sep-19 12:33N 37°28' E 025°19'2322.9
2014-Sep-19 11:33N 37°07' E 025°08'1111.4
2014-Sep-19 10:34N 37°06' E 025°22'3232.5
2014-Sep-19 09:34N 36°34' E 025°17'1717.0
2014-Sep-19 08:33N 36°17' E 025°19'12 0.7
2014-Sep-18 15:34N 36°06' E 025°17'1919.2
2014-Sep-18 14:33N 36°25' E 025°20'2928.8
2014-Sep-18 13:34N 36°51' E 025°05'2221.9
2014-Sep-18 12:34N 37°13' E 025°12'9 8.8
2014-Sep-18 11:34N 37°21' E 025°16'2423.1
2014-Sep-18 10:32N 37°01' E 025°00'2626.4
2014-Sep-18 09:34N 36°38' E 025°17'1616.3
2014-Sep-18 08:34N 36°23' E 025°23'38 2.3
2014-Sep-17 16:29N 35°46' E 025°14'4623.7
2014-Sep-17 14:34N 36°32' E 025°18'2221.5
2014-Sep-17 13:33N 36°51' E 025°06'2221.9
2014-Sep-17 12:34N 37°12' E 025°11'1010.4
2014-Sep-17 11:34N 37°22' E 025°17'2323.0
2014-Sep-17 10:33N 37°02' E 025°02'2625.6
2014-Sep-17 09:33N 36°39' E 025°16'55 3.2
2014-Sep-16 16:03N 35°44' E 025°13'2039.7
2014-Sep-16 15:33N 36°03' E 025°17'2120.5
2014-Sep-16 14:33N 36°23' E 025°23'2827.7
2014-Sep-16 13:33N 36°48' E 025°08'2120.5
2014-Sep-16 12:31N 37°10' E 025°10'1617.0
2014-Sep-16 11:34N 37°25' E 025°17'2625.7
2014-Sep-16 10:33N 37°02' E 025°02'2626.0
2014-Sep-16 09:33N 36°39' E 025°17'1716.9
2014-Sep-16 08:33N 36°23' E 025°23'3837.6
2014-Sep-16 07:33N 35°46' E 025°17'3 0.2
2014-Sep-15 16:06N 35°47' E 025°14'2239.2
2014-Sep-15 15:33N 36°08' E 025°19'2120.9
2014-Sep-15 14:34N 36°29' E 025°19'3837.6
2014-Sep-15 13:33N 37°06' E 025°22'1010.1
2014-Sep-15 12:33N 37°12' E 025°11'10 9.9
2014-Sep-15 11:34N 37°21' E 025°16'1212.3
2014-Sep-15 10:34N 37°09' E 025°19'2525.1
2014-Sep-15 09:33N 36°44' E 025°15'2322.8
2014-Sep-15 08:34N 36°23' E 025°25'56 3.5
2014-Sep-14 16:33N 35°29' E 025°10'4039.8
2014-Sep-14 15:33N 36°08' E 025°19'2020.3
2014-Sep-14 14:34N 36°28' E 025°18'3838.4
2014-Sep-14 13:34N 37°06' E 025°22'1110.5
2014-Sep-14 12:34N 37°11' E 025°10'1110.8
2014-Sep-14 11:34N 37°21' E 025°16'1211.8
2014-Sep-14 10:34N 37°09' E 025°18'2424.3
2014-Sep-14 09:33N 36°45' E 025°15'2423.7
2014-Sep-14 08:33N 36°23' E 025°25'3635.7
2014-Sep-14 07:33N 35°48' E 025°15'17 1.1
2014-Sep-13 16:27N 35°31' E 025°11'3539.3
2014-Sep-13 15:33N 36°06' E 025°18'1918.6
2014-Sep-13 14:33N 36°24' E 025°20'2626.7
2014-Sep-13 13:34N 36°49' E 025°08'2119.9
2014-Sep-13 12:31N 37°10' E 025°10'1617.0
2014-Sep-13 11:33N 37°25' E 025°17'2525.3
2014-Sep-13 10:33N 37°03' E 025°02'2626.0
2014-Sep-13 09:34N 36°39' E 025°16'1817.8
2014-Sep-13 08:33N 36°23' E 025°25'3636.1
2014-Sep-13 07:34N 35°48' E 025°14'1 0.1
2014-Sep-12 16:12N 35°47' E 025°14'2539.2
2014-Sep-12 15:33N 36°12' E 025°19'1818.2
2014-Sep-12 14:34N 36°30' E 025°18'3736.6
2014-Sep-12 13:34N 37°06' E 025°22'10 9.7
2014-Sep-12 12:33N 37°11' E 025°11'1212.2
2014-Sep-12 11:34N 37°22' E 025°17'1312.6
2014-Sep-12 10:34N 37°09' E 025°18'2524.8
2014-Sep-12 09:33N 36°45' E 025°15'2323.3
2014-Sep-12 08:34N 36°23' E 025°25'3636.0
2014-Sep-12 07:33N 35°48' E 025°14'  

Dump ship's entire track history